createdAt,value
2019-03-29T00:01:22.911Z,42.03
2019-03-29T00:03:53.671Z,36.00
2019-03-29T00:06:24.466Z,38.23
2019-03-29T00:08:55.490Z,38.20
2019-03-29T00:11:26.188Z,38.07
2019-03-29T00:13:56.869Z,39.70
2019-03-29T00:16:27.905Z,39.47
2019-03-29T00:18:58.737Z,40.27
2019-03-29T00:21:29.545Z,39.67
2019-03-29T00:24:06.545Z,40.80
2019-03-29T00:26:32.908Z,36.57
2019-03-29T00:29:04.061Z,38.97
2019-03-29T00:31:34.777Z,37.20
2019-03-29T00:34:05.528Z,39.93
2019-03-29T00:36:36.249Z,41.57
2019-03-29T00:39:08.037Z,36.70
2019-03-29T00:41:38.733Z,39.80
2019-03-29T00:44:09.506Z,36.33
2019-03-29T00:46:40.604Z,38.20
2019-03-29T00:49:11.424Z,36.40
2019-03-29T00:51:42.073Z,40.07
2019-03-29T00:54:12.843Z,38.27
2019-03-29T00:56:43.608Z,34.73
2019-03-29T00:59:14.964Z,38.10
2019-03-29T01:01:45.947Z,34.20
2019-03-29T01:04:16.739Z,37.93
2019-03-29T01:06:47.456Z,35.13
2019-03-29T01:09:18.322Z,34.27
2019-03-29T01:11:49.047Z,37.77
2019-03-29T01:14:20.232Z,38.20
2019-03-29T01:16:51.057Z,37.17
2019-03-29T01:19:21.873Z,36.03
2019-03-29T01:21:52.901Z,34.27
2019-03-29T01:24:23.735Z,34.33
2019-03-29T01:26:54.553Z,40.47
2019-03-29T01:29:25.388Z,36.57
2019-03-29T01:31:56.465Z,33.77
2019-03-29T01:34:27.159Z,38.47
2019-03-29T01:36:57.879Z,34.80
2019-03-29T01:39:28.645Z,39.47
2019-03-29T01:41:59.430Z,37.70
2019-03-29T01:44:30.645Z,36.53
2019-03-29T01:47:01.961Z,39.27
2019-03-29T01:49:32.788Z,38.13
2019-03-29T01:52:03.910Z,36.03
2019-03-29T01:54:34.661Z,36.90
2019-03-29T01:57:05.335Z,34.90
2019-03-29T01:59:36.120Z,41.43
2019-03-29T02:02:07.885Z,40.13
2019-03-29T02:04:38.639Z,40.07
2019-03-29T02:07:09.369Z,37.23
2019-03-29T02:09:40.141Z,36.50
2019-03-29T02:12:11.144Z,35.40
2019-03-29T02:14:43.465Z,40.20
2019-03-29T02:17:14.394Z,33.90
2019-03-29T02:19:45.496Z,34.60
2019-03-29T02:22:16.222Z,37.07
2019-03-29T02:24:47.041Z,36.07
2019-03-29T02:27:18.027Z,34.50
2019-03-29T02:29:48.826Z,40.50
2019-03-29T02:32:19.913Z,43.63
2019-03-29T02:34:51.769Z,36.27
2019-03-29T02:37:22.424Z,38.03
2019-03-29T02:39:54.673Z,37.33
2019-03-29T02:42:25.963Z,35.43
2019-03-29T02:44:57.124Z,35.23
2019-03-29T02:47:28.135Z,36.57
2019-03-29T02:49:59.249Z,36.63
2019-03-29T02:52:30.035Z,34.97
2019-03-29T02:55:01.122Z,34.97
2019-03-29T02:57:31.972Z,35.50
2019-03-29T03:00:02.717Z,36.97
2019-03-29T03:02:33.817Z,32.53
2019-03-29T03:05:05.009Z,36.30
2019-03-29T03:07:35.745Z,36.67
2019-03-29T03:10:08.486Z,34.27
2019-03-29T03:12:39.685Z,31.00
2019-03-29T03:15:10.801Z,29.27
2019-03-29T03:17:41.922Z,26.70
2019-03-29T03:20:15.690Z,24.13
2019-03-29T03:22:46.981Z,25.50
2019-03-29T03:25:17.827Z,29.77
2019-03-29T03:27:48.555Z,26.70
2019-03-29T03:30:19.535Z,33.33
2019-03-29T03:32:50.510Z,34.23
2019-03-29T03:35:21.791Z,31.30
2019-03-29T03:37:52.548Z,34.83
2019-03-29T03:40:23.354Z,30.00
2019-03-29T03:42:54.148Z,30.47
2019-03-29T03:45:24.910Z,32.00
2019-03-29T03:47:56.331Z,36.67
2019-03-29T03:50:43.692Z,34.17
2019-03-29T03:53:14.517Z,28.97
2019-03-29T03:55:45.443Z,31.60
2019-03-29T03:58:16.901Z,34.37
2019-03-29T04:00:55.273Z,29.10
2019-03-29T04:03:26.739Z,31.57
2019-03-29T04:05:58.182Z,30.90
2019-03-29T04:08:29.249Z,30.03
2019-03-29T04:11:00.045Z,32.67
2019-03-29T04:13:31.134Z,31.73
2019-03-29T04:16:02.219Z,29.07
2019-03-29T04:18:33.272Z,29.23
2019-03-29T04:21:03.982Z,31.63
2019-03-29T04:23:35.098Z,29.07
2019-03-29T04:26:06.137Z,28.63
2019-03-29T04:28:36.873Z,26.27
2019-03-29T04:31:07.957Z,25.17
2019-03-29T04:33:39.059Z,26.17
2019-03-29T04:36:09.894Z,25.07
2019-03-29T04:38:41.022Z,23.80
2019-03-29T04:41:12.204Z,25.67
2019-03-29T04:43:43.338Z,23.77
2019-03-29T04:46:14.496Z,29.97
2019-03-29T04:48:48.138Z,24.00
2019-03-29T04:51:18.908Z,23.43
2019-03-29T04:53:49.689Z,28.97
2019-03-29T04:56:20.443Z,28.10
2019-03-29T04:58:51.150Z,28.33
2019-03-29T05:01:21.912Z,26.00
2019-03-29T05:03:52.701Z,28.37
2019-03-29T05:06:24.177Z,31.00
2019-03-29T05:08:54.969Z,30.50
2019-03-29T05:11:25.806Z,28.07
2019-03-29T05:13:56.543Z,30.07
2019-03-29T05:16:27.612Z,29.70
2019-03-29T05:18:58.719Z,30.43
2019-03-29T05:21:29.527Z,27.07
2019-03-29T05:24:00.675Z,27.77
2019-03-29T05:26:31.788Z,28.07
2019-03-29T05:29:02.504Z,26.70
2019-03-29T05:31:33.577Z,24.90
2019-03-29T05:34:04.664Z,26.97
2019-03-29T05:36:35.452Z,28.60
2019-03-29T05:39:07.641Z,28.60
2019-03-29T05:41:38.396Z,30.17
2019-03-29T05:44:09.135Z,26.87
2019-03-29T05:46:39.883Z,31.90
2019-03-29T05:49:10.960Z,32.17
2019-03-29T05:51:42.002Z,32.23
2019-03-29T05:54:12.732Z,30.60
2019-03-29T05:56:43.895Z,30.23
2019-03-29T05:59:14.609Z,30.17
2019-03-29T06:01:45.380Z,27.87
2019-03-29T06:04:16.435Z,28.10
2019-03-29T06:06:47.553Z,31.83
2019-03-29T06:09:18.337Z,30.67
2019-03-29T06:11:49.413Z,26.50
2019-03-29T06:14:20.162Z,28.07
2019-03-29T06:16:50.922Z,33.47
2019-03-29T06:19:22.829Z,31.87
2019-03-29T06:21:53.611Z,28.53
2019-03-29T06:24:24.428Z,27.57
2019-03-29T06:26:55.250Z,31.33
2019-03-29T06:29:26.067Z,30.43
2019-03-29T06:31:56.844Z,25.10
2019-03-29T06:34:27.588Z,31.57
2019-03-29T06:36:59.804Z,29.17
2019-03-29T06:39:31.442Z,34.03
2019-03-29T06:42:02.199Z,28.23
2019-03-29T06:44:33.446Z,27.13
2019-03-29T06:47:04.527Z,33.53
2019-03-29T06:49:35.264Z,37.07
2019-03-29T06:52:07.401Z,37.40
2019-03-29T06:54:39.210Z,43.53
2019-03-29T06:57:10.369Z,41.00
2019-03-29T06:59:41.160Z,51.43
2019-03-29T07:02:11.904Z,51.80
2019-03-29T07:04:42.632Z,59.33
2019-03-29T07:07:13.376Z,70.57
2019-03-29T07:09:44.106Z,64.80
2019-03-29T07:12:15.211Z,72.70
2019-03-29T07:14:46.020Z,64.70
2019-03-29T07:17:18.264Z,71.47
2019-03-29T07:19:48.987Z,71.83
2019-03-29T07:22:19.735Z,78.53
2019-03-29T07:24:50.452Z,71.77
2019-03-29T07:27:21.191Z,80.03
2019-03-29T07:29:51.962Z,78.63
2019-03-29T07:32:22.754Z,84.17
2019-03-29T07:34:53.460Z,86.47
2019-03-29T07:37:24.218Z,88.43
2019-03-29T07:39:55.589Z,84.20
2019-03-29T07:42:26.730Z,90.27
2019-03-29T07:44:57.844Z,91.43
2019-03-29T07:47:28.682Z,88.83
2019-03-29T07:49:59.433Z,95.53
2019-03-29T07:52:30.180Z,91.97
2019-03-29T07:55:00.922Z,92.07
2019-03-29T07:57:31.732Z,86.90
2019-03-29T08:00:02.614Z,86.83
2019-03-29T08:02:35.090Z,83.77
2019-03-29T08:05:07.110Z,91.03
2019-03-29T08:07:38.261Z,85.70
2019-03-29T08:10:23.625Z,93.97
2019-03-29T08:12:42.196Z,87.03
2019-03-29T08:15:12.937Z,85.93
2019-03-29T08:17:44.205Z,81.97
2019-03-29T08:20:38.100Z,91.23
2019-03-29T08:22:47.972Z,77.60
2019-03-29T08:25:18.741Z,77.20
2019-03-29T08:27:49.883Z,78.63
2019-03-29T08:30:20.612Z,87.03
2019-03-29T08:32:51.477Z,77.73
2019-03-29T08:35:22.674Z,81.50
2019-03-29T08:37:53.434Z,74.73
2019-03-29T08:40:24.240Z,72.10
2019-03-29T08:42:55.145Z,75.63
2019-03-29T08:45:26.195Z,74.00
2019-03-29T08:47:57.036Z,75.17
2019-03-29T08:50:28.093Z,72.63
2019-03-29T08:52:59.041Z,74.23
2019-03-29T08:55:29.915Z,66.70
2019-03-29T08:58:00.653Z,74.57
2019-03-29T09:00:32.676Z,64.80
2019-03-29T09:03:04.830Z,64.07
2019-03-29T09:05:39.022Z,71.47
2019-03-29T09:08:08.592Z,66.40
2019-03-29T09:10:39.394Z,69.57
2019-03-29T09:13:10.496Z,67.03
2019-03-29T09:15:41.597Z,63.70
2019-03-29T09:18:12.851Z,55.87
2019-03-29T09:20:43.964Z,55.97
2019-03-29T09:23:15.096Z,52.97
2019-03-29T09:25:46.108Z,55.53
2019-03-29T09:28:17.242Z,59.37
2019-03-29T09:30:47.983Z,54.73
2019-03-29T09:33:18.749Z,43.13
2019-03-29T09:35:49.459Z,43.73
2019-03-29T09:38:20.213Z,41.60
2019-03-29T09:40:58.178Z,48.57
2019-03-29T09:43:26.407Z,45.00
2019-03-29T09:45:55.992Z,48.77
2019-03-29T09:48:27.507Z,43.60
2019-03-29T09:50:58.356Z,45.20
2019-03-29T09:53:29.192Z,40.20
2019-03-29T09:56:00.665Z,36.83
2019-03-29T09:58:31.507Z,37.27
2019-03-29T10:01:02.251Z,37.13
2019-03-29T10:03:33.155Z,32.17
2019-03-29T10:06:03.958Z,31.50
2019-03-29T10:08:34.814Z,32.50
2019-03-29T10:11:06.819Z,32.77
2019-03-29T10:13:37.982Z,31.17
2019-03-29T10:16:08.725Z,32.57
2019-03-29T10:18:39.780Z,28.40
2019-03-29T10:21:11.715Z,30.20
2019-03-29T10:23:42.506Z,28.10
2019-03-29T10:26:13.329Z,29.87
2019-03-29T10:28:44.543Z,27.90
2019-03-29T10:31:15.319Z,29.53
2019-03-29T10:33:49.026Z,30.53
2019-03-29T10:36:19.035Z,27.03
2019-03-29T10:38:50.755Z,30.03
2019-03-29T10:41:22.806Z,31.67
2019-03-29T10:43:53.743Z,23.45
2019-03-29T10:46:24.569Z,25.40
2019-03-29T10:48:55.734Z,25.10
2019-03-29T10:51:26.483Z,28.83
2019-03-29T10:53:57.241Z,26.93
2019-03-29T10:56:34.322Z,24.33
2019-03-29T10:59:00.881Z,27.87
2019-03-29T11:01:34.616Z,23.55
2019-03-29T11:04:05.759Z,28.23
2019-03-29T11:06:36.513Z,28.20
2019-03-29T11:09:08.605Z,22.20
2019-03-29T11:11:39.358Z,19.80
2019-03-29T11:14:10.131Z,22.73
2019-03-29T11:16:40.874Z,22.65
2019-03-29T11:19:11.601Z,21.87
2019-03-29T11:21:42.366Z,24.10
2019-03-29T11:24:13.107Z,23.12
2019-03-29T11:26:43.804Z,20.20
2019-03-29T11:29:15.234Z,22.75
2019-03-29T11:31:45.989Z,24.15
2019-03-29T11:34:16.929Z,22.82
2019-03-29T11:36:48.056Z,27.27
2019-03-29T11:39:19.006Z,21.62
2019-03-29T11:41:50.152Z,21.50
2019-03-29T11:44:20.953Z,21.95
2019-03-29T11:46:51.743Z,20.55
2019-03-29T11:49:22.579Z,20.77
2019-03-29T11:51:53.405Z,22.10
2019-03-29T11:54:24.443Z,20.72
2019-03-29T11:56:55.372Z,22.13
2019-03-29T11:59:26.898Z,20.07
2019-03-29T12:01:57.927Z,19.27
2019-03-29T12:04:28.762Z,18.27
2019-03-29T12:07:03.440Z,18.73
2019-03-29T12:09:33.457Z,22.42
2019-03-29T12:12:04.425Z,21.90
2019-03-29T12:14:35.223Z,24.23
2019-03-29T12:17:05.947Z,19.60
2019-03-29T12:19:36.708Z,18.00
2019-03-29T12:22:07.516Z,21.62
2019-03-29T12:24:39.335Z,17.65
2019-03-29T12:27:10.450Z,16.93
2019-03-29T12:29:41.270Z,17.37
2019-03-29T12:32:12.043Z,17.23
2019-03-29T12:34:43.883Z,17.33
2019-03-29T12:37:14.631Z,17.13
2019-03-29T12:39:45.464Z,15.18
2019-03-29T12:42:18.710Z,14.80
2019-03-29T12:44:49.489Z,13.58
2019-03-29T12:47:20.251Z,17.87
2019-03-29T12:49:51.331Z,17.90
2019-03-29T12:52:22.177Z,15.23
2019-03-29T12:54:53.012Z,17.63
2019-03-29T12:57:24.178Z,18.45
2019-03-29T12:59:55.403Z,19.07
2019-03-29T13:02:26.137Z,18.32
2019-03-29T13:04:56.907Z,17.37
2019-03-29T13:07:28.527Z,14.00
2019-03-29T13:09:59.285Z,18.40
2019-03-29T13:12:31.411Z,15.65
2019-03-29T13:15:02.218Z,16.25
2019-03-29T13:17:34.982Z,16.82
2019-03-29T13:20:06.362Z,16.48
2019-03-29T13:22:37.457Z,13.93
2019-03-29T13:25:08.547Z,16.35
2019-03-29T13:27:39.311Z,15.83
2019-03-29T13:30:11.017Z,15.83
2019-03-29T13:32:42.336Z,14.83
2019-03-29T13:35:13.784Z,16.77
2019-03-29T13:37:44.941Z,14.38
2019-03-29T13:40:16.208Z,14.80
2019-03-29T13:42:47.411Z,18.27
2019-03-29T13:45:18.163Z,15.70
2019-03-29T13:47:49.025Z,15.95
2019-03-29T13:50:19.891Z,14.37
2019-03-29T13:52:50.624Z,14.65
2019-03-29T13:55:21.486Z,17.67
2019-03-29T13:57:52.236Z,16.10
2019-03-29T14:00:22.983Z,16.25
2019-03-29T14:02:53.747Z,15.57
2019-03-29T14:05:24.899Z,16.13
2019-03-29T14:07:56.545Z,16.82
2019-03-29T14:10:27.400Z,13.90
2019-03-29T14:12:58.253Z,16.00
2019-03-29T14:15:29.073Z,16.82
2019-03-29T14:18:02.131Z,15.27
2019-03-29T14:20:34.126Z,17.03
2019-03-29T14:23:05.933Z,14.80
2019-03-29T14:25:37.036Z,16.37
2019-03-29T14:28:08.093Z,15.00
2019-03-29T14:30:38.933Z,15.53
2019-03-29T14:33:09.773Z,14.43
2019-03-29T14:35:40.586Z,17.10
2019-03-29T14:38:11.336Z,15.27
2019-03-29T14:40:42.433Z,16.57
2019-03-29T14:43:13.514Z,19.37
2019-03-29T14:45:44.820Z,17.60
2019-03-29T14:48:15.953Z,16.67
2019-03-29T14:50:46.724Z,15.27
2019-03-29T14:53:18.134Z,19.30
2019-03-29T14:55:48.964Z,16.03
2019-03-29T14:58:20.810Z,16.77
2019-03-29T15:00:51.562Z,13.00
2019-03-29T15:03:22.682Z,15.97
2019-03-29T15:05:54.002Z,16.70
2019-03-29T15:08:25.045Z,14.80
2019-03-29T15:10:56.088Z,16.80
2019-03-29T15:13:26.843Z,15.77
2019-03-29T15:15:57.759Z,14.83
2019-03-29T15:18:28.540Z,14.70
2019-03-29T15:20:59.304Z,14.67
2019-03-29T15:23:30.097Z,16.33
2019-03-29T15:26:01.302Z,17.60
2019-03-29T15:28:32.090Z,15.60
2019-03-29T15:31:02.918Z,13.37
2019-03-29T15:33:33.652Z,16.17
2019-03-29T15:36:04.830Z,14.40
2019-03-29T15:38:36.329Z,14.57
2019-03-29T15:41:07.163Z,13.00
2019-03-29T15:43:38.938Z,13.87
2019-03-29T15:46:09.668Z,17.98
2019-03-29T15:48:40.836Z,16.35
2019-03-29T15:51:13.082Z,13.40
2019-03-29T15:53:44.128Z,16.27
2019-03-29T15:56:14.942Z,14.00
2019-03-29T15:58:45.666Z,14.87
2019-03-29T16:01:16.428Z,15.20
2019-03-29T16:03:47.173Z,15.57
2019-03-29T16:06:17.925Z,15.77
2019-03-29T16:08:48.650Z,15.67
2019-03-29T16:11:22.547Z,14.90
2019-03-29T16:13:54.380Z,16.80
2019-03-29T16:16:25.145Z,17.20
2019-03-29T16:18:55.904Z,16.93
2019-03-29T16:21:26.683Z,15.30
2019-03-29T16:23:59.606Z,15.50
2019-03-29T16:26:30.401Z,20.10
2019-03-29T16:29:01.190Z,22.70
2019-03-29T16:31:32.401Z,32.07
2019-03-29T16:34:03.539Z,15.20
2019-03-29T16:36:34.398Z,16.10
2019-03-29T16:39:07.382Z,16.13
2019-03-29T16:41:38.528Z,14.57
2019-03-29T16:44:09.374Z,16.60
2019-03-29T16:46:40.050Z,14.43
2019-03-29T16:49:10.855Z,16.47
2019-03-29T16:51:41.591Z,13.70
2019-03-29T16:54:12.373Z,14.17
2019-03-29T16:56:43.139Z,17.07
2019-03-29T16:59:14.647Z,15.53
2019-03-29T17:01:45.397Z,16.50
2019-03-29T17:04:16.242Z,15.33
2019-03-29T17:06:47.546Z,16.37
2019-03-29T17:09:18.340Z,14.63
2019-03-29T17:11:49.131Z,16.67
2019-03-29T17:14:20.303Z,13.53
2019-03-29T17:16:52.930Z,14.13
2019-03-29T17:19:23.536Z,15.77
2019-03-29T17:21:54.383Z,14.23
2019-03-29T17:24:25.180Z,15.80
2019-03-29T17:26:56.105Z,33.80
2019-03-29T17:29:27.472Z,44.17
2019-03-29T17:31:58.248Z,50.77
2019-03-29T17:34:29.508Z,53.03
2019-03-29T17:37:00.631Z,53.67
2019-03-29T17:39:31.544Z,62.77
2019-03-29T17:42:02.459Z,61.47
2019-03-29T17:44:33.354Z,60.27
2019-03-29T17:47:04.156Z,65.47
2019-03-29T17:49:34.874Z,63.00
2019-03-29T17:52:05.645Z,69.00
2019-03-29T17:54:36.384Z,70.13
2019-03-29T17:57:07.249Z,73.67
2019-03-29T17:59:38.327Z,78.77
2019-03-29T18:02:09.954Z,91.60
2019-03-29T18:04:41.885Z,86.23
2019-03-29T18:07:12.713Z,89.73
2019-03-29T18:09:43.499Z,87.17
2019-03-29T18:12:14.296Z,88.40
2019-03-29T18:14:45.091Z,89.50
2019-03-29T18:17:16.176Z,90.67
2019-03-29T18:19:46.903Z,90.27
2019-03-29T18:22:18.299Z,94.43
2019-03-29T18:24:49.089Z,98.67
2019-03-29T18:27:19.888Z,107.83
2019-03-29T18:29:53.040Z,111.37
2019-03-29T18:32:23.870Z,107.47
2019-03-29T18:34:55.013Z,118.73
2019-03-29T18:37:26.525Z,97.93
2019-03-29T18:39:58.072Z,85.13
2019-03-29T18:42:28.835Z,81.10
2019-03-29T18:44:59.510Z,78.70
2019-03-29T18:47:30.186Z,79.93
2019-03-29T18:50:00.887Z,84.67
2019-03-29T18:52:31.759Z,82.30
2019-03-29T18:55:02.440Z,87.07
2019-03-29T18:57:33.223Z,95.63
2019-03-29T19:00:05.449Z,88.73
2019-03-29T19:02:37.983Z,99.93
2019-03-29T19:05:14.197Z,84.70
2019-03-29T19:07:44.880Z,89.43
2019-03-29T19:10:15.573Z,91.27
2019-03-29T19:12:46.293Z,84.83
2019-03-29T19:15:17.103Z,89.80
2019-03-29T19:17:48.072Z,94.33
2019-03-29T19:20:27.382Z,97.27
2019-03-29T19:22:51.202Z,84.13
2019-03-29T19:25:21.994Z,93.70
2019-03-29T19:27:53.034Z,90.43
2019-03-29T19:30:24.735Z,101.97
2019-03-29T19:32:55.526Z,97.73
2019-03-29T19:35:27.601Z,105.13
2019-03-29T19:37:58.331Z,98.13
2019-03-29T19:40:28.960Z,103.17
2019-03-29T19:43:00.058Z,98.80
2019-03-29T19:45:34.293Z,108.53
2019-03-29T19:48:04.264Z,104.37
2019-03-29T19:50:34.880Z,98.87
2019-03-29T19:53:06.796Z,112.63
2019-03-29T19:55:37.483Z,115.27
2019-03-29T19:58:08.342Z,118.87
2019-03-29T20:00:45.638Z,111.30
2019-03-29T20:03:16.625Z,111.63
2019-03-29T20:05:48.352Z,108.33
2019-03-29T20:08:19.160Z,105.20
2019-03-29T20:10:50.199Z,105.57
2019-03-29T20:13:21.264Z,104.80
2019-03-29T20:15:51.888Z,111.83
2019-03-29T20:18:22.654Z,155.67
2019-03-29T20:20:53.650Z,117.70
2019-03-29T20:23:24.369Z,115.23
2019-03-29T20:25:55.370Z,104.73
2019-03-29T20:28:26.155Z,112.77
2019-03-29T20:30:57.149Z,114.03
2019-03-29T20:33:28.089Z,129.30
2019-03-29T20:35:59.032Z,133.90
2019-03-29T20:38:29.777Z,134.83
2019-03-29T20:41:00.994Z,122.33
2019-03-29T20:43:31.988Z,117.90
2019-03-29T20:46:03.997Z,117.53
2019-03-29T20:48:34.713Z,119.73
2019-03-29T20:51:06.112Z,119.63
2019-03-29T20:53:36.961Z,115.83
2019-03-29T20:56:07.676Z,111.10
2019-03-29T20:58:39.213Z,114.87
2019-03-29T21:01:09.957Z,115.30
2019-03-29T21:03:40.772Z,116.90
2019-03-29T21:06:11.848Z,110.50
2019-03-29T21:08:43.751Z,119.27
2019-03-29T21:11:14.499Z,102.33
2019-03-29T21:13:45.435Z,109.93
2019-03-29T21:16:16.299Z,106.37
2019-03-29T21:18:47.436Z,104.67
2019-03-29T21:21:18.136Z,107.20
2019-03-29T21:23:48.858Z,108.60
2019-03-29T21:26:19.485Z,107.47
2019-03-29T21:28:52.725Z,111.83
2019-03-29T21:31:22.752Z,95.53
2019-03-29T21:33:54.054Z,105.73
2019-03-29T21:36:26.211Z,104.90
2019-03-29T21:38:56.901Z,94.20
2019-03-29T21:41:27.682Z,102.83
2019-03-29T21:43:58.354Z,93.67
2019-03-29T21:46:29.107Z,96.20
2019-03-29T21:48:59.850Z,98.23
2019-03-29T21:51:30.535Z,97.83
2019-03-29T21:54:01.282Z,102.67
2019-03-29T21:56:31.986Z,101.90
2019-03-29T21:59:02.972Z,94.17
2019-03-29T22:01:33.738Z,95.37
2019-03-29T22:04:04.897Z,93.00
2019-03-29T22:06:35.938Z,96.73
2019-03-29T22:09:08.313Z,97.67
2019-03-29T22:11:39.160Z,90.90
2019-03-29T22:14:09.909Z,90.70
2019-03-29T22:16:40.863Z,87.60
2019-03-29T22:19:11.505Z,93.20
2019-03-29T22:21:42.205Z,95.93
2019-03-29T22:24:12.927Z,89.67
2019-03-29T22:26:44.113Z,94.23
2019-03-29T22:29:15.027Z,94.60
2019-03-29T22:31:45.645Z,101.20
2019-03-29T22:34:16.763Z,94.97
2019-03-29T22:36:48.818Z,99.97
2019-03-29T22:39:19.522Z,100.17
2019-03-29T22:41:50.250Z,97.73
2019-03-29T22:44:20.937Z,97.07
2019-03-29T22:46:51.644Z,95.90
2019-03-29T22:49:22.354Z,91.67
2019-03-29T22:51:53.256Z,93.33
2019-03-29T22:54:23.991Z,89.30
2019-03-29T22:56:54.679Z,90.43
2019-03-29T22:59:25.367Z,83.47
2019-03-29T23:01:56.260Z,81.83
2019-03-29T23:04:27.317Z,85.03
2019-03-29T23:06:58.248Z,86.73
2019-03-29T23:09:29.223Z,91.17
2019-03-29T23:11:59.511Z,103.20
2019-03-29T23:14:30.197Z,108.13
2019-03-29T23:17:00.882Z,92.53
2019-03-29T23:19:31.600Z,101.07
2019-03-29T23:22:02.298Z,117.77
2019-03-29T23:24:33.307Z,110.10
2019-03-29T23:27:04.113Z,105.17
2019-03-29T23:29:35.037Z,100.77
2019-03-29T23:32:07.156Z,97.40
2019-03-29T23:34:37.890Z,97.17
2019-03-29T23:37:08.569Z,95.33
2019-03-29T23:39:39.680Z,84.87
2019-03-29T23:42:10.358Z,106.43
2019-03-29T23:44:41.039Z,143.60
2019-03-29T23:47:11.716Z,188.70
2019-03-29T23:49:44.238Z,158.67
2019-03-29T23:52:14.950Z,133.83
2019-03-29T23:54:45.674Z,124.67
2019-03-29T23:57:16.264Z,110.53
2019-03-29T23:59:47.352Z,90.50
